Time;durP1;ratioP1;P1;durP2;ratioP2;P2;SDS_P1;SDS_P2;PMS_P1;PMS_P2;Temp;Humidity;BMP_temperature;BMP_pressure;BME280_temperature;BME280_humidity;BME280_pressure;Samples;Min_cycle;Max_cycle;Signal;HPM_P1;HPM_P2
2024/03/09 00:07:14;;;;;;;;;;;5.80;99.90;;;;;;6707518;88;20103;-74
2024/03/09 00:17:16;;;;;;;;;;;6.10;99.90;;;;;;6705544;88;20096;-75
2024/03/09 00:27:21;;;;;;;;;;;6.50;99.90;;;;;;6704092;88;20093;-74
2024/03/09 00:37:22;;;;;;;;;;;6.70;99.90;;;;;;6704446;88;20548;-75
2024/03/09 00:47:22;;;;;;;;;;;6.70;99.90;;;;;;6705668;88;20059;-74
2024/03/09 00:57:25;;;;;;;;;;;6.70;99.90;;;;;;6717902;88;20060;-75
2024/03/09 01:07:29;;;;;;;;;;;6.60;99.90;;;;;;6701906;88;20165;-74
2024/03/09 01:17:30;;;;;;;;;;;6.70;99.90;;;;;;6711605;88;20062;-74
2024/03/09 01:27:30;;;;;;;;;;;6.80;99.90;;;;;;6707589;88;20094;-75
2024/03/09 01:37:31;;;;;;;;;;;6.80;99.90;;;;;;6711593;88;20095;-74
2024/03/09 01:47:31;;;;;;;;;;;6.80;99.90;;;;;;6703238;88;20106;-75
2024/03/09 01:57:35;;;;;;;;;;;6.80;99.90;;;;;;6720910;77;20072;-76
2024/03/09 02:07:36;;;;;;;;;;;6.70;99.90;;;;;;6720195;88;20059;-76
2024/03/09 02:17:36;;;;;;;;;;;6.80;99.90;;;;;;6716571;88;20198;-76
2024/03/09 02:27:37;;;;;;;;;;;6.80;99.90;;;;;;6717465;88;20052;-76
2024/03/09 02:37:37;;;;;;;;;;;6.80;99.90;;;;;;6720790;88;20260;-75
2024/03/09 02:47:41;;;;;;;;;;;6.80;99.90;;;;;;6718602;88;20044;-76
2024/03/09 02:57:41;;;;;;;;;;;6.90;99.90;;;;;;6720108;88;20134;-77
2024/03/09 03:07:42;;;;;;;;;;;6.80;99.90;;;;;;6726435;88;20105;-76
2024/03/09 03:17:44;;;;;;;;;;;6.80;99.90;;;;;;6722524;88;20091;-76
2024/03/09 03:27:47;;;;;;;;;;;6.90;99.90;;;;;;6720006;88;20071;-76
2024/03/09 03:37:48;;;;;;;;;;;6.80;99.90;;;;;;6720606;88;20186;-76
2024/03/09 03:47:48;;;;;;;;;;;6.70;99.90;;;;;;6714918;88;20043;-76
2024/03/09 03:57:50;;;;;;;;;;;6.70;99.90;;;;;;6712030;88;20091;-76
2024/03/09 04:07:52;;;;;;;;;;;6.60;99.90;;;;;;6717423;88;20085;-76
2024/03/09 04:17:53;;;;;;;;;;;6.50;99.90;;;;;;6716380;88;20113;-76
2024/03/09 04:27:55;;;;;;;;;;;6.60;99.90;;;;;;6716376;88;20668;-75
2024/03/09 04:37:55;;;;;;;;;;;6.50;99.90;;;;;;6716902;88;20078;-75
2024/03/09 04:47:59;;;;;;;;;;;6.40;99.90;;;;;;6723887;88;20080;-77
2024/03/09 04:57:59;;;;;;;;;;;6.20;99.90;;;;;;6722512;88;20542;-76
2024/03/09 05:08:02;;;;;;;;;;;6.20;99.90;;;;;;6722162;88;20234;-76
2024/03/09 05:18:03;;;;;;;;;;;6.20;99.90;;;;;;6723340;88;20084;-76
2024/03/09 05:28:03;;;;;;;;;;;6.10;99.90;;;;;;6725947;88;20051;-77
2024/03/09 05:38:04;;;;;;;;;;;6.10;99.90;;;;;;6722680;88;20198;-77
2024/03/09 05:48:05;;;;;;;;;;;6.10;99.90;;;;;;6719817;88;20190;-76
2024/03/09 05:58:07;;;;;;;;;;;6.10;99.90;;;;;;6721969;88;20089;-76
2024/03/09 06:08:07;;;;;;;;;;;6.00;99.90;;;;;;6723109;88;20084;-76
2024/03/09 06:18:08;;;;;;;;;;;5.90;99.90;;;;;;6717459;88;20100;-77
2024/03/09 06:28:12;;;;;;;;;;;5.80;99.90;;;;;;6716705;88;20475;-76
2024/03/09 06:38:13;;;;;;;;;;;5.70;99.90;;;;;;6720742;88;20068;-76
2024/03/09 06:48:15;;;;;;;;;;;5.70;99.90;;;;;;6716291;88;20120;-76
2024/03/09 06:58:17;;;;;;;;;;;5.60;99.90;;;;;;6715656;88;20062;-76
2024/03/09 07:08:21;;;;;;;;;;;5.60;99.90;;;;;;6713983;88;20080;-75
2024/03/09 07:18:22;;;;;;;;;;;5.50;99.90;;;;;;6719866;88;20112;-76
2024/03/09 07:28:22;;;;;;;;;;;5.70;99.90;;;;;;6713053;88;20055;-75
2024/03/09 07:38:23;;;;;;;;;;;6.00;99.90;;;;;;6718683;88;20485;-75
2024/03/09 07:48:23;;;;;;;;;;;6.40;99.90;;;;;;6721691;88;20082;-76
2024/03/09 07:58:25;;;;;;;;;;;6.60;99.90;;;;;;6728550;77;20073;-75
2024/03/09 08:08:25;;;;;;;;;;;6.90;99.90;;;;;;6719336;88;20401;-76
2024/03/09 08:18:25;;;;;;;;;;;8.20;99.90;;;;;;6717210;88;20059;-76
2024/03/09 08:28:26;;;;;;;;;;;9.30;99.90;;;;;;6715622;88;20057;-77
2024/03/09 08:38:27;;;;;;;;;;;9.60;99.90;;;;;;6715931;88;20733;-76
2024/03/09 08:48:27;;;;;;;;;;;8.40;99.90;;;;;;6714420;88;20121;-77
2024/03/09 08:58:28;;;;;;;;;;;8.60;99.90;;;;;;6712232;88;20163;-77
2024/03/09 09:08:28;;;;;;;;;;;9.30;99.90;;;;;;6714910;88;20050;-77
2024/03/09 09:18:29;;;;;;;;;;;9.60;99.90;;;;;;6721822;88;20043;-76
2024/03/09 09:28:29;;;;;;;;;;;10.10;99.90;;;;;;6725119;88;20055;-77
2024/03/09 09:38:31;;;;;;;;;;;10.20;99.90;;;;;;6719181;88;20079;-76
2024/03/09 09:48:37;;;;;;;;;;;10.40;99.90;;;;;;6714072;88;20602;-76
2024/03/09 09:58:39;;;;;;;;;;;11.30;99.90;;;;;;6715608;88;20062;-76
2024/03/09 10:08:46;;;;;;;;;;;11.20;99.90;;;;;;6715131;88;20255;-77
2024/03/09 10:18:47;;;;;;;;;;;11.60;99.90;;;;;;6713561;88;20478;-77
2024/03/09 10:28:49;;;;;;;;;;;11.90;99.90;;;;;;6717895;88;20077;-78
2024/03/09 10:38:51;;;;;;;;;;;12.30;99.90;;;;;;6713546;88;20086;-77
2024/03/09 10:48:54;;;;;;;;;;;13.40;99.90;;;;;;6711645;88;20055;-78
2024/03/09 10:58:55;;;;;;;;;;;13.70;99.10;;;;;;6713682;88;20071;-77
2024/03/09 11:08:56;;;;;;;;;;;13.20;99.60;;;;;;6711459;88;20071;-75
2024/03/09 11:18:57;;;;;;;;;;;14.60;98.50;;;;;;6712304;88;20059;-76
2024/03/09 11:28:58;;;;;;;;;;;14.20;98.50;;;;;;6710766;88;20059;-75
2024/03/09 11:39:01;;;;;;;;;;;14.70;97.90;;;;;;6716133;88;20168;-76
2024/03/09 11:49:05;;;;;;;;;;;15.10;97.80;;;;;;6714689;88;20542;-77
2024/03/09 11:59:06;;;;;;;;;;;15.40;97.30;;;;;;6719455;88;20852;-77
2024/03/09 12:09:08;;;;;;;;;;;16.00;97.30;;;;;;6717664;88;20063;-76
2024/03/09 12:19:11;;;;;;;;;;;15.30;96.70;;;;;;6707982;88;20181;-77
2024/03/09 12:29:12;;;;;;;;;;;16.20;96.00;;;;;;6712336;88;20190;-75
2024/03/09 12:39:16;;;;;;;;;;;15.90;95.90;;;;;;6717640;88;20172;-77
2024/03/09 12:49:18;;;;;;;;;;;17.40;95.20;;;;;;6715338;88;20051;-76
2024/03/09 12:59:26;;;;;;;;;;;18.50;94.10;;;;;;6715324;88;20075;-77
2024/03/09 13:09:33;;;;;;;;;;;17.60;94.30;;;;;;6715403;88;20138;-76
2024/03/09 13:19:35;;;;;;;;;;;19.10;93.80;;;;;;6722853;88;20050;-77
2024/03/09 13:29:36;;;;;;;;;;;18.00;93.30;;;;;;6720271;88;20063;-77
2024/03/09 13:39:36;;;;;;;;;;;18.00;93.30;;;;;;6716786;88;20121;-76
2024/03/09 13:49:39;;;;;;;;;;;18.40;92.80;;;;;;6717262;88;20135;-77
2024/03/09 13:59:42;;;;;;;;;;;19.90;92.50;;;;;;6725769;77;20528;-78
2024/03/09 14:09:49;;;;;;;;;;;20.10;90.80;;;;;;6724236;88;20066;-78
2024/03/09 14:19:52;;;;;;;;;;;20.00;91.10;;;;;;6719060;88;20506;-78
2024/03/09 14:29:54;;;;;;;;;;;19.80;88.60;;;;;;6718363;88;20190;-76
2024/03/09 14:39:54;;;;;;;;;;;18.30;90.40;;;;;;6724157;88;20065;-78
2024/03/09 14:49:54;;;;;;;;;;;17.70;90.90;;;;;;6721978;88;20207;-78
2024/03/09 14:59:55;;;;;;;;;;;16.70;91.80;;;;;;6720685;88;20183;-78
2024/03/09 15:09:55;;;;;;;;;;;16.30;92.40;;;;;;6723977;88;20047;-78
2024/03/09 15:19:56;;;;;;;;;;;16.40;92.40;;;;;;6721188;88;20051;-78
2024/03/09 15:29:57;;;;;;;;;;;15.90;93.10;;;;;;6720759;88;20051;-78
2024/03/09 15:40:00;;;;;;;;;;;15.50;93.50;;;;;;6728822;88;20450;-76
2024/03/09 15:50:06;;;;;;;;;;;15.40;93.80;;;;;;6723664;88;20059;-78
2024/03/09 16:00:06;;;;;;;;;;;15.40;94.10;;;;;;6721635;88;20055;-78
2024/03/09 16:10:07;;;;;;;;;;;15.10;94.40;;;;;;6728706;88;20478;-78
2024/03/09 16:20:08;;;;;;;;;;;15.00;94.60;;;;;;6723870;88;20083;-77
2024/03/09 16:30:10;;;;;;;;;;;14.70;95.00;;;;;;6723017;88;20493;-77
2024/03/09 16:40:14;;;;;;;;;;;14.50;95.20;;;;;;6726863;88;20122;-77
2024/03/09 16:50:18;;;;;;;;;;;14.40;95.60;;;;;;6723724;88;20063;-77
2024/03/09 17:00:21;;;;;;;;;;;14.20;96.00;;;;;;6721855;88;20182;-77
2024/03/09 17:10:22;;;;;;;;;;;14.00;96.60;;;;;;6726369;88;21030;-77
2024/03/09 17:20:25;;;;;;;;;;;13.80;97.00;;;;;;6728892;88;20135;-75
2024/03/09 17:30:28;;;;;;;;;;;13.60;97.70;;;;;;6732669;88;20059;-76
2024/03/09 17:40:30;;;;;;;;;;;13.50;98.20;;;;;;6722795;88;20196;-76
2024/03/09 17:50:32;;;;;;;;;;;13.30;98.70;;;;;;6724331;88;20102;-79
2024/03/09 18:00:37;;;;;;;;;;;13.20;98.80;;;;;;6725692;88;20086;-76
2024/03/09 18:10:43;;;;;;;;;;;13.00;99.10;;;;;;6727286;88;20626;-74
2024/03/09 18:20:47;;;;;;;;;;;12.90;99.30;;;;;;6720808;88;20083;-76
2024/03/09 18:30:48;;;;;;;;;;;12.90;99.50;;;;;;6724251;88;20077;-76
2024/03/09 18:40:52;;;;;;;;;;;12.80;99.50;;;;;;6720362;88;20076;-77
2024/03/09 18:50:53;;;;;;;;;;;12.70;99.50;;;;;;6724449;88;20099;-77
2024/03/09 19:00:54;;;;;;;;;;;12.70;99.50;;;;;;6724562;88;20058;-79
2024/03/09 19:10:54;;;;;;;;;;;12.50;99.80;;;;;;6724369;88;20097;-78
2024/03/09 19:20:55;;;;;;;;;;;12.50;99.70;;;;;;6719906;88;20614;-79
2024/03/09 19:30:56;;;;;;;;;;;12.30;99.90;;;;;;6719291;88;20068;-77
2024/03/09 19:40:56;;;;;;;;;;;12.30;99.90;;;;;;6721682;88;20054;-76
2024/03/09 19:50:59;;;;;;;;;;;12.10;99.90;;;;;;6719189;88;20539;-77
2024/03/09 20:01:04;;;;;;;;;;;12.20;99.90;;;;;;6723584;77;20058;-75
2024/03/09 20:11:08;;;;;;;;;;;12.10;99.90;;;;;;6713795;88;20180;-76
2024/03/09 20:21:08;;;;;;;;;;;12.00;99.90;;;;;;6715222;88;20100;-74
2024/03/09 20:31:10;;;;;;;;;;;12.00;99.90;;;;;;6712653;88;20099;-75
2024/03/09 20:41:10;;;;;;;;;;;12.20;99.90;;;;;;6720186;88;20063;-75
2024/03/09 20:51:17;;;;;;;;;;;12.10;99.90;;;;;;6719201;88;20567;-75
2024/03/09 21:01:17;;;;;;;;;;;12.10;99.80;;;;;;6724566;88;20059;-76
2024/03/09 21:11:18;;;;;;;;;;;12.10;99.80;;;;;;6715762;88;20147;-75
2024/03/09 21:21:19;;;;;;;;;;;12.00;99.80;;;;;;6727616;88;20184;-75
2024/03/09 21:31:19;;;;;;;;;;;11.80;99.90;;;;;;6730380;88;20430;-76
2024/03/09 21:41:20;;;;;;;;;;;11.80;99.90;;;;;;6731992;88;20525;-75
2024/03/09 21:51:20;;;;;;;;;;;11.50;99.90;;;;;;6717809;88;20076;-75
2024/03/09 22:01:21;;;;;;;;;;;11.50;99.90;;;;;;6716689;88;20086;-75
2024/03/09 22:11:22;;;;;;;;;;;11.40;99.90;;;;;;6719458;88;20089;-75
2024/03/09 22:21:22;;;;;;;;;;;11.30;99.90;;;;;;6716353;88;20062;-74
2024/03/09 22:31:24;;;;;;;;;;;11.10;99.90;;;;;;6712874;88;20573;-75
2024/03/09 22:41:26;;;;;;;;;;;11.00;99.90;;;;;;6716401;88;20058;-75
2024/03/09 22:51:26;;;;;;;;;;;10.80;99.90;;;;;;6718816;88;20100;-75
2024/03/09 23:01:39;;;;;;;;;;;10.80;99.90;;;;;;6716051;88;20107;-75
2024/03/09 23:11:39;;;;;;;;;;;10.60;99.90;;;;;;6718757;88;20142;-75
2024/03/09 23:21:40;;;;;;;;;;;10.80;99.90;;;;;;6720140;88;20068;-75
2024/03/09 23:31:40;;;;;;;;;;;10.80;99.90;;;;;;6720658;88;20489;-76
2024/03/09 23:41:42;;;;;;;;;;;10.70;99.90;;;;;;6716257;88;20549;-75
2024/03/09 23:51:43;;;;;;;;;;;10.70;99.90;;;;;;6717764;88;20682;-75
